createdAt,value
2023-01-17T00:02:07.350Z,6.54
2023-01-17T00:04:52.938Z,6.50
2023-01-17T00:07:40.545Z,6.58
2023-01-17T00:10:10.763Z,6.61
2023-01-17T00:12:39.974Z,6.62
2023-01-17T00:15:09.106Z,6.66
2023-01-17T00:17:36.839Z,6.65
2023-01-17T00:20:22.231Z,6.66
2023-01-17T00:23:07.720Z,6.61
2023-01-17T00:25:56.418Z,6.68
2023-01-17T00:28:25.277Z,6.67
2023-01-17T00:30:52.391Z,6.68
2023-01-17T00:33:19.587Z,6.72
2023-01-17T00:35:46.290Z,6.73
2023-01-17T00:38:14.690Z,6.72
2023-01-17T00:40:43.051Z,6.62
2023-01-17T00:43:29.926Z,6.60
2023-01-17T00:46:17.179Z,6.55
2023-01-17T00:49:03.192Z,6.46
2023-01-17T00:51:50.498Z,6.43
2023-01-17T00:54:36.732Z,6.48
2023-01-17T00:57:23.652Z,6.53
2023-01-17T01:00:09.062Z,6.37
2023-01-17T01:02:56.790Z,6.37
2023-01-17T01:05:42.709Z,6.35
2023-01-17T01:08:39.354Z,6.31
2023-01-17T01:11:26.840Z,6.34
2023-01-17T01:14:12.716Z,6.36
2023-01-17T01:16:58.215Z,6.30
2023-01-17T01:19:45.198Z,6.31
2023-01-17T01:22:30.533Z,6.29
2023-01-17T01:25:15.909Z,6.29
2023-01-17T01:28:01.204Z,6.34
2023-01-17T01:30:46.632Z,6.35
2023-01-17T01:33:21.364Z,6.31
2023-01-17T01:35:52.480Z,6.28
2023-01-17T01:38:21.857Z,6.25
2023-01-17T01:40:52.113Z,6.27
2023-01-17T01:43:21.469Z,6.21
2023-01-17T01:45:54.100Z,6.21
2023-01-17T01:48:34.356Z,6.18
2023-01-17T01:51:07.221Z,6.21
2023-01-17T01:53:38.353Z,6.19
2023-01-17T01:56:11.928Z,6.14
2023-01-17T01:58:41.776Z,6.17
2023-01-17T02:01:10.434Z,6.19
2023-01-17T02:03:40.866Z,6.21
2023-01-17T02:06:20.291Z,6.21
2023-01-17T02:08:48.662Z,6.18
2023-01-17T02:11:16.553Z,6.14
2023-01-17T02:13:44.478Z,6.13
2023-01-17T02:16:24.161Z,6.15
2023-01-17T02:19:01.095Z,6.15
2023-01-17T02:21:35.751Z,6.13
2023-01-17T02:24:47.254Z,6.06
2023-01-17T02:27:26.775Z,6.01
2023-01-17T02:30:21.779Z,6.04
2023-01-17T02:33:02.421Z,6.05
2023-01-17T02:35:39.165Z,6.03
2023-01-17T02:38:25.417Z,6.02
2023-01-17T02:40:58.009Z,6.06
2023-01-17T02:43:26.505Z,6.09
2023-01-17T02:45:55.581Z,6.12
2023-01-17T02:48:27.084Z,6.14
2023-01-17T02:51:29.797Z,6.17
2023-01-17T02:54:18.246Z,6.13
2023-01-17T02:56:54.686Z,6.07
2023-01-17T02:59:34.819Z,5.97
2023-01-17T03:02:14.894Z,5.98
2023-01-17T03:04:48.598Z,5.89
2023-01-17T03:07:20.759Z,5.85
2023-01-17T03:09:53.684Z,5.83
2023-01-17T03:12:22.070Z,5.87
2023-01-17T03:14:49.706Z,5.85
2023-01-17T03:17:18.868Z,5.96
2023-01-17T03:19:46.500Z,5.94
2023-01-17T03:22:14.214Z,5.99
2023-01-17T03:24:41.876Z,6.03
2023-01-17T03:27:09.730Z,6.12
2023-01-17T03:29:37.407Z,6.12
2023-01-17T03:32:05.516Z,6.12
2023-01-17T03:34:34.525Z,6.10
2023-01-17T03:37:02.201Z,6.13
2023-01-17T03:39:30.001Z,6.15
2023-01-17T03:41:57.726Z,6.16
2023-01-17T03:44:25.411Z,6.19
2023-01-17T03:46:53.155Z,6.21
2023-01-17T03:49:20.881Z,6.21
2023-01-17T03:51:49.921Z,6.20
2023-01-17T03:54:17.583Z,6.17
2023-01-17T03:56:45.239Z,6.15
2023-01-17T03:59:13.311Z,6.13
2023-01-17T04:01:41.181Z,6.12
2023-01-17T04:04:08.902Z,6.07
2023-01-17T04:06:36.562Z,6.04
2023-01-17T04:09:05.607Z,6.03
2023-01-17T04:11:33.253Z,6.04
2023-01-17T04:14:00.943Z,5.98
2023-01-17T04:16:31.232Z,6.02
2023-01-17T04:18:59.191Z,6.05
2023-01-17T04:21:26.904Z,6.06
2023-01-17T04:23:54.616Z,6.06
2023-01-17T04:26:23.638Z,6.12
2023-01-17T04:28:51.391Z,6.11
2023-01-17T04:31:19.183Z,6.19
2023-01-17T04:33:46.942Z,6.27
2023-01-17T04:36:14.697Z,6.20
2023-01-17T04:38:42.677Z,6.19
2023-01-17T04:41:10.360Z,6.25
2023-01-17T04:43:39.394Z,6.28
2023-01-17T04:46:10.910Z,6.26
2023-01-17T04:48:38.730Z,6.28
2023-01-17T04:51:07.445Z,6.27
2023-01-17T04:53:35.290Z,6.27
2023-01-17T04:56:03.099Z,6.30
2023-01-17T04:58:31.023Z,6.35
2023-01-17T05:01:04.157Z,6.33
2023-01-17T05:03:32.620Z,6.17
2023-01-17T05:06:00.412Z,6.03
2023-01-17T05:08:28.815Z,5.81
2023-01-17T05:10:56.910Z,5.72
2023-01-17T05:13:24.609Z,5.58
2023-01-17T05:15:52.650Z,5.44
2023-01-17T05:18:21.656Z,5.40
2023-01-17T05:20:49.430Z,5.43
2023-01-17T05:23:17.619Z,5.42
2023-01-17T05:25:45.282Z,5.48
2023-01-17T05:28:14.016Z,5.55
2023-01-17T05:30:41.862Z,5.60
2023-01-17T05:33:10.288Z,5.63
2023-01-17T05:35:39.405Z,5.74
2023-01-17T05:38:07.140Z,5.78
2023-01-17T05:40:34.972Z,5.84
2023-01-17T05:43:04.187Z,5.86
2023-01-17T05:45:33.998Z,5.83
2023-01-17T05:48:02.183Z,5.81
2023-01-17T05:50:32.025Z,5.76
2023-01-17T05:53:02.881Z,5.75
2023-01-17T05:55:31.421Z,5.71
2023-01-17T05:57:59.614Z,5.76
2023-01-17T06:00:27.742Z,5.80
2023-01-17T06:02:57.188Z,5.82
2023-01-17T06:05:26.326Z,5.84
2023-01-17T06:07:54.815Z,5.87
2023-01-17T06:10:24.731Z,5.93
2023-01-17T06:13:01.828Z,5.95
2023-01-17T06:15:29.760Z,6.07
2023-01-17T06:17:57.444Z,6.03
2023-01-17T06:20:25.250Z,6.01
2023-01-17T06:22:52.957Z,6.15
2023-01-17T06:25:20.578Z,6.06
2023-01-17T06:27:50.432Z,6.08
2023-01-17T06:30:18.548Z,6.14
2023-01-17T06:32:46.323Z,6.24
2023-01-17T06:35:14.065Z,6.24
2023-01-17T06:37:41.861Z,6.20
2023-01-17T06:40:11.145Z,6.22
2023-01-17T06:42:38.911Z,6.14
2023-01-17T06:45:09.481Z,6.05
2023-01-17T06:47:39.074Z,5.95
2023-01-17T06:50:08.152Z,5.94
2023-01-17T06:52:36.264Z,6.00
2023-01-17T06:55:03.982Z,6.03
2023-01-17T06:57:31.658Z,5.98
2023-01-17T06:59:59.337Z,5.95
2023-01-17T07:02:28.399Z,5.97
2023-01-17T07:04:56.108Z,6.04
2023-01-17T07:07:24.888Z,6.08
2023-01-17T07:09:52.551Z,6.14
2023-01-17T07:12:20.281Z,6.24
2023-01-17T07:14:47.941Z,6.21
2023-01-17T07:17:15.648Z,6.10
2023-01-17T07:19:44.915Z,6.10
2023-01-17T07:22:12.635Z,6.14
2023-01-17T07:24:40.312Z,6.20
2023-01-17T07:27:08.656Z,6.21
2023-01-17T07:29:36.458Z,6.23
2023-01-17T07:32:04.397Z,6.25
2023-01-17T07:34:32.154Z,6.22
2023-01-17T07:37:01.933Z,6.21
2023-01-17T07:39:29.709Z,6.22
2023-01-17T07:41:57.378Z,6.19
2023-01-17T07:44:25.152Z,6.08
2023-01-17T07:46:52.920Z,6.19
2023-01-17T07:49:20.562Z,6.28
2023-01-17T07:51:48.508Z,6.27
2023-01-17T07:54:17.573Z,6.28
2023-01-17T07:56:47.091Z,6.33
2023-01-17T07:59:14.888Z,6.35
2023-01-17T08:01:42.647Z,6.42
2023-01-17T08:04:11.446Z,6.39
2023-01-17T08:06:43.145Z,6.39
2023-01-17T08:09:10.994Z,6.36
2023-01-17T08:11:40.088Z,6.35
2023-01-17T08:14:07.777Z,6.29
2023-01-17T08:16:35.516Z,6.30
2023-01-17T08:19:03.280Z,6.30
2023-01-17T08:21:30.970Z,6.39
2023-01-17T08:23:58.667Z,6.47
2023-01-17T08:26:26.358Z,6.49
2023-01-17T08:29:00.322Z,6.43
2023-01-17T08:31:28.443Z,6.37
2023-01-17T08:33:57.532Z,6.42
2023-01-17T08:36:27.475Z,6.40
2023-01-17T08:38:55.751Z,6.49
2023-01-17T08:41:24.609Z,6.49
2023-01-17T08:43:53.300Z,6.51
2023-01-17T08:46:22.957Z,6.53
2023-01-17T08:48:54.144Z,6.48
2023-01-17T08:51:21.851Z,6.39
2023-01-17T08:53:49.669Z,6.38
2023-01-17T08:56:17.405Z,6.40
2023-01-17T08:58:45.305Z,6.43
2023-01-17T09:01:13.144Z,6.53
2023-01-17T09:03:42.525Z,6.64
2023-01-17T09:06:12.467Z,6.65
2023-01-17T09:08:40.255Z,6.69
2023-01-17T09:11:09.714Z,6.80
2023-01-17T09:13:37.829Z,6.98
2023-01-17T09:16:06.820Z,7.12
2023-01-17T09:18:36.116Z,7.21
2023-01-17T09:21:13.205Z,7.28
2023-01-17T09:23:41.649Z,7.41
2023-01-17T09:26:20.672Z,7.57
2023-01-17T09:28:48.719Z,7.69
2023-01-17T09:31:17.575Z,7.84
2023-01-17T09:33:45.599Z,7.85
2023-01-17T09:36:15.198Z,7.66
2023-01-17T09:38:43.009Z,7.80
2023-01-17T09:41:22.945Z,7.61
2023-01-17T09:43:54.882Z,7.80
2023-01-17T09:46:26.633Z,8.09
2023-01-17T09:49:00.361Z,8.23
2023-01-17T09:51:29.637Z,8.22
2023-01-17T09:53:57.558Z,8.17
2023-01-17T09:56:30.277Z,8.27
2023-01-17T09:59:21.035Z,8.56
2023-01-17T10:01:56.808Z,8.75
2023-01-17T10:04:44.647Z,8.88
2023-01-17T10:07:27.330Z,8.95
2023-01-17T10:10:10.895Z,9.02
2023-01-17T10:12:44.603Z,8.99
2023-01-17T10:15:29.578Z,9.07
2023-01-17T10:18:07.343Z,9.17
2023-01-17T10:24:04.644Z,9.23
2023-01-17T10:26:34.089Z,9.31
2023-01-17T10:29:06.098Z,9.38
2023-01-17T10:31:40.625Z,9.50
2023-01-17T10:34:16.279Z,9.54
2023-01-17T10:36:49.381Z,9.53
2023-01-17T10:39:22.186Z,9.51
2023-01-17T10:41:56.225Z,9.47
2023-01-17T10:44:30.578Z,9.44
2023-01-17T10:47:07.603Z,9.32
2023-01-17T10:49:35.423Z,9.20
2023-01-17T10:52:13.516Z,9.18
2023-01-17T10:55:09.542Z,8.99
2023-01-17T10:57:40.553Z,8.82
2023-01-17T11:00:31.022Z,8.82
2023-01-17T11:02:59.578Z,8.80
2023-01-17T11:05:29.363Z,8.80
2023-01-17T11:08:02.158Z,8.80
2023-01-17T11:10:44.484Z,8.80
2023-01-17T11:13:26.021Z,8.81
2023-01-17T11:15:57.801Z,8.68
2023-01-17T11:18:28.670Z,8.82
2023-01-17T11:21:12.206Z,8.78
2023-01-17T11:23:42.636Z,8.66
2023-01-17T11:26:13.778Z,8.73
2023-01-17T11:28:42.316Z,8.74
2023-01-17T11:31:25.977Z,8.79
2023-01-17T11:34:09.550Z,8.81
2023-01-17T11:36:37.277Z,8.75
2023-01-17T11:39:07.895Z,8.76
2023-01-17T11:41:39.714Z,8.80
2023-01-17T11:44:22.689Z,8.82
2023-01-17T11:46:50.555Z,8.74
2023-01-17T11:49:25.701Z,8.63
2023-01-17T11:51:56.120Z,8.56
2023-01-17T11:54:28.348Z,8.50
2023-01-17T11:57:00.540Z,8.45
2023-01-17T11:59:31.577Z,8.35
2023-01-17T12:02:35.663Z,8.26
2023-01-17T12:05:15.654Z,8.25
2023-01-17T12:07:54.897Z,8.21
2023-01-17T12:10:26.561Z,8.28
2023-01-17T12:13:25.659Z,8.50
2023-01-17T12:16:22.095Z,8.64
2023-01-17T12:18:59.100Z,8.73
2023-01-17T12:21:39.193Z,8.81
2023-01-17T12:24:26.317Z,8.87
2023-01-17T12:27:02.423Z,8.93
2023-01-17T12:29:48.939Z,8.95
2023-01-17T12:32:32.349Z,9.04
2023-01-17T12:35:06.517Z,8.99
2023-01-17T12:37:38.948Z,9.05
2023-01-17T12:40:18.361Z,8.99
2023-01-17T12:42:52.898Z,8.96
2023-01-17T12:45:26.925Z,9.00
2023-01-17T12:48:01.429Z,9.01
2023-01-17T12:50:35.435Z,9.01
2023-01-17T12:53:13.442Z,8.91
2023-01-17T12:55:48.229Z,8.92
2023-01-17T12:58:21.941Z,8.95
2023-01-17T13:01:00.574Z,9.06
2023-01-17T13:03:42.876Z,9.01
2023-01-17T13:06:29.060Z,8.97
2023-01-17T13:09:01.625Z,9.01
2023-01-17T13:11:34.738Z,8.88
2023-01-17T13:14:03.168Z,8.91
2023-01-17T13:16:41.960Z,8.83
2023-01-17T13:19:20.045Z,8.75
2023-01-17T13:21:49.458Z,8.72
2023-01-17T13:24:33.765Z,8.83
2023-01-17T13:27:14.642Z,8.74
2023-01-17T13:29:58.494Z,8.76
2023-01-17T13:32:49.827Z,8.75
2023-01-17T13:35:23.511Z,8.67
2023-01-17T13:38:10.318Z,8.61
2023-01-17T13:40:50.728Z,8.58
2023-01-17T13:43:22.174Z,8.58
2023-01-17T13:45:55.292Z,8.54
2023-01-17T13:48:33.235Z,8.52
2023-01-17T13:51:03.157Z,8.47
2023-01-17T13:53:49.193Z,8.45
2023-01-17T13:56:26.290Z,8.46
2023-01-17T13:59:02.533Z,8.45
2023-01-17T14:01:53.752Z,8.39
2023-01-17T14:04:24.415Z,8.38
2023-01-17T14:07:01.054Z,8.36
2023-01-17T14:09:52.561Z,8.33
2023-01-17T14:12:32.080Z,8.33
2023-01-17T14:15:02.183Z,8.28
2023-01-17T14:17:59.158Z,8.28
2023-01-17T14:20:44.277Z,8.25
2023-01-17T14:23:38.655Z,8.28
2023-01-17T14:26:42.666Z,8.30
2023-01-17T14:29:44.267Z,8.26
2023-01-17T14:32:14.255Z,8.22
2023-01-17T14:34:43.724Z,8.21
2023-01-17T14:37:19.508Z,8.20
2023-01-17T14:39:49.042Z,8.14
2023-01-17T14:42:19.383Z,8.11
2023-01-17T14:44:51.976Z,8.07
2023-01-17T14:47:20.257Z,8.03
2023-01-17T14:49:47.962Z,7.99
2023-01-17T14:52:18.974Z,7.98
2023-01-17T14:54:51.602Z,7.97
2023-01-17T14:57:27.621Z,7.94
2023-01-17T15:00:14.860Z,7.91
2023-01-17T15:02:44.779Z,7.94
2023-01-17T15:05:17.268Z,7.90
2023-01-17T15:07:50.546Z,7.86
2023-01-17T15:10:21.875Z,7.89
2023-01-17T15:12:49.820Z,7.90
2023-01-17T15:15:39.852Z,7.87
2023-01-17T15:18:19.486Z,7.86
2023-01-17T15:20:55.970Z,7.82
2023-01-17T15:23:30.514Z,7.77
2023-01-17T15:25:59.803Z,7.77
2023-01-17T15:28:30.741Z,7.77
2023-01-17T15:31:11.241Z,7.77
2023-01-17T15:33:42.473Z,7.73
2023-01-17T15:36:14.866Z,7.71
2023-01-17T15:38:51.597Z,7.69
2023-01-17T15:41:23.911Z,7.71
2023-01-17T15:43:51.913Z,7.72
2023-01-17T15:46:25.865Z,7.72
2023-01-17T15:48:53.734Z,7.71
2023-01-17T15:51:41.510Z,7.67
2023-01-17T15:54:37.109Z,7.65
2023-01-17T15:57:18.083Z,7.66
2023-01-17T15:59:48.880Z,7.66
2023-01-17T16:02:38.823Z,7.63
2023-01-17T16:05:41.880Z,7.64
2023-01-17T16:08:44.959Z,7.60
2023-01-17T16:11:15.707Z,7.57
2023-01-17T16:13:47.213Z,7.59
2023-01-17T16:16:18.219Z,7.57
2023-01-17T16:18:47.574Z,7.55
2023-01-17T16:21:21.530Z,7.53
2023-01-17T16:23:49.490Z,7.46
2023-01-17T16:26:18.691Z,7.46
2023-01-17T16:28:46.732Z,7.45
2023-01-17T16:31:14.688Z,7.43
2023-01-17T16:33:43.505Z,7.44
2023-01-17T16:36:15.046Z,7.43
2023-01-17T16:38:43.332Z,7.42
2023-01-17T16:41:12.101Z,7.43
2023-01-17T16:43:41.270Z,7.43
2023-01-17T16:46:11.971Z,7.43
2023-01-17T16:48:39.832Z,7.45
2023-01-17T16:51:08.828Z,7.41
2023-01-17T16:53:37.233Z,7.40
2023-01-17T16:56:11.928Z,7.32
2023-01-17T16:58:42.137Z,7.32
2023-01-17T17:01:11.281Z,7.37
2023-01-17T17:03:39.242Z,7.32
2023-01-17T17:06:07.411Z,7.31
2023-01-17T17:08:35.500Z,7.32
2023-01-17T17:11:13.004Z,7.30
2023-01-17T17:13:42.830Z,7.28
2023-01-17T17:16:15.965Z,7.32
2023-01-17T17:18:44.499Z,7.33
2023-01-17T17:21:12.280Z,7.32
2023-01-17T17:23:39.989Z,7.31
2023-01-17T17:26:07.692Z,7.29
2023-01-17T17:28:35.704Z,7.29
2023-01-17T17:31:10.488Z,7.28
2023-01-17T17:33:38.657Z,7.24
2023-01-17T17:36:10.110Z,7.18
2023-01-17T17:38:50.676Z,7.20
2023-01-17T17:41:20.962Z,7.20
2023-01-17T17:43:49.023Z,7.20
2023-01-17T17:46:18.265Z,7.23
2023-01-17T17:48:46.055Z,7.22
2023-01-17T17:51:23.700Z,7.21
2023-01-17T17:53:52.670Z,7.19
2023-01-17T17:56:21.127Z,7.18
2023-01-17T17:58:49.504Z,7.18
2023-01-17T18:01:18.714Z,7.15
2023-01-17T18:03:46.733Z,7.17
2023-01-17T18:06:17.479Z,7.16
2023-01-17T18:08:45.350Z,7.11
2023-01-17T18:11:17.739Z,7.10
2023-01-17T18:13:47.595Z,7.08
2023-01-17T18:16:19.204Z,7.07
2023-01-17T18:18:50.876Z,7.11
2023-01-17T18:21:23.692Z,7.06
2023-01-17T18:23:58.578Z,7.07
2023-01-17T18:26:28.977Z,7.01
2023-01-17T18:28:58.759Z,7.02
2023-01-17T18:31:31.909Z,6.97
2023-01-17T18:34:01.388Z,6.94
2023-01-17T18:36:29.427Z,6.93
2023-01-17T18:38:58.175Z,6.88
2023-01-17T18:41:29.757Z,6.89
2023-01-17T18:43:57.662Z,6.87
2023-01-17T18:46:27.899Z,6.87
2023-01-17T18:48:57.780Z,6.86
2023-01-17T18:51:26.456Z,6.84
2023-01-17T18:53:54.948Z,6.84
2023-01-17T18:56:24.026Z,6.86
2023-01-17T18:58:52.118Z,6.81
2023-01-17T19:01:22.270Z,6.81
2023-01-17T19:03:54.089Z,6.84
2023-01-17T19:06:24.794Z,6.86
2023-01-17T19:08:52.696Z,6.84
2023-01-17T19:11:21.823Z,6.81
2023-01-17T19:13:50.368Z,6.85
2023-01-17T19:16:20.862Z,6.85
2023-01-17T19:18:48.777Z,6.80
2023-01-17T19:21:20.706Z,6.80
2023-01-17T19:23:49.085Z,6.80
2023-01-17T19:26:22.882Z,6.85
2023-01-17T19:28:51.408Z,6.87
2023-01-17T19:31:29.138Z,6.88
2023-01-17T19:33:58.662Z,6.83
2023-01-17T19:36:33.115Z,6.82
2023-01-17T19:39:15.259Z,6.80
2023-01-17T19:41:45.148Z,6.83
2023-01-17T19:44:28.197Z,6.82
2023-01-17T19:46:59.124Z,6.84
2023-01-17T19:49:29.668Z,6.86
2023-01-17T19:51:58.863Z,6.79
2023-01-17T19:54:26.626Z,6.73
2023-01-17T19:57:08.261Z,6.72
2023-01-17T19:59:43.191Z,6.75
2023-01-17T20:02:11.542Z,6.69
2023-01-17T20:04:41.968Z,6.65
2023-01-17T20:07:10.985Z,6.65
2023-01-17T20:09:38.828Z,6.56
2023-01-17T20:12:19.303Z,6.52
2023-01-17T20:14:54.310Z,6.46
2023-01-17T20:17:22.420Z,6.45
2023-01-17T20:19:50.141Z,6.50
2023-01-17T20:22:27.785Z,6.51
2023-01-17T20:25:01.560Z,6.53
2023-01-17T20:27:29.451Z,6.55
2023-01-17T20:30:14.888Z,6.54
2023-01-17T20:33:02.137Z,6.48
2023-01-17T20:35:29.855Z,6.45
2023-01-17T20:37:59.218Z,6.43
2023-01-17T20:40:36.522Z,6.40
2023-01-17T20:43:04.820Z,6.36
2023-01-17T20:45:32.521Z,6.35
2023-01-17T20:48:02.577Z,6.33
2023-01-17T20:50:30.223Z,6.26
2023-01-17T20:52:59.347Z,6.28
2023-01-17T20:55:29.180Z,6.27
2023-01-17T20:57:59.767Z,6.29
2023-01-17T21:00:27.486Z,6.27
2023-01-17T21:02:55.205Z,6.27
2023-01-17T21:05:22.955Z,6.22
2023-01-17T21:07:53.403Z,6.18
2023-01-17T21:10:29.614Z,6.19
2023-01-17T21:12:57.333Z,6.19
2023-01-17T21:15:34.887Z,6.17
2023-01-17T21:18:09.041Z,6.15
2023-01-17T21:20:41.745Z,6.10
2023-01-17T21:23:17.894Z,6.08
2023-01-17T21:25:58.375Z,6.08
2023-01-17T21:28:35.482Z,6.07
2023-01-17T21:31:20.486Z,6.06
2023-01-17T21:33:48.961Z,6.05
2023-01-17T21:36:18.213Z,6.04
2023-01-17T21:38:51.710Z,6.12
2023-01-17T21:41:28.023Z,6.06
2023-01-17T21:43:58.117Z,6.04
2023-01-17T21:46:29.645Z,6.03
2023-01-17T21:48:57.867Z,6.00
2023-01-17T21:51:46.326Z,5.93
2023-01-17T21:54:19.862Z,5.91
2023-01-17T21:57:06.169Z,5.91
2023-01-17T21:59:40.128Z,5.90
2023-01-17T22:04:51.960Z,5.95
2023-01-17T22:07:29.071Z,5.92
2023-01-17T22:09:57.437Z,5.89
2023-01-17T22:12:26.583Z,5.92
2023-01-17T22:14:54.943Z,5.88
2023-01-17T22:17:23.503Z,5.91
2023-01-17T22:22:39.115Z,5.87
2023-01-17T22:25:12.894Z,5.92
2023-01-17T22:27:42.001Z,5.88
2023-01-17T22:30:16.467Z,5.90
2023-01-17T22:32:44.502Z,5.92
2023-01-17T22:35:27.237Z,5.91
2023-01-17T22:37:55.272Z,5.94
2023-01-17T22:40:23.628Z,5.91
2023-01-17T22:42:55.580Z,5.89
2023-01-17T22:45:27.336Z,5.89
2023-01-17T22:47:55.052Z,5.86
2023-01-17T22:50:23.947Z,5.88
2023-01-17T22:52:51.639Z,5.79
2023-01-17T22:55:23.925Z,5.79
2023-01-17T22:57:53.216Z,5.83
2023-01-17T23:00:31.706Z,5.82
2023-01-17T23:03:06.158Z,5.85
2023-01-17T23:05:33.864Z,5.86
2023-01-17T23:08:02.474Z,5.86
2023-01-17T23:10:47.979Z,5.86
2023-01-17T23:13:17.012Z,5.82
2023-01-17T23:16:04.994Z,5.82
2023-01-17T23:18:50.256Z,5.82
2023-01-17T23:21:18.700Z,5.81
2023-01-17T23:23:49.331Z,5.74
2023-01-17T23:26:20.208Z,5.73
2023-01-17T23:28:51.011Z,5.72
2023-01-17T23:31:23.400Z,5.74
2023-01-17T23:33:51.078Z,5.74
2023-01-17T23:36:30.109Z,5.73
2023-01-17T23:39:02.430Z,5.72
2023-01-17T23:42:02.655Z,5.71
2023-01-17T23:44:36.080Z,5.71
2023-01-17T23:47:03.790Z,5.68
2023-01-17T23:49:31.958Z,5.66
2023-01-17T23:51:59.759Z,5.67
2023-01-17T23:54:35.146Z,5.70
2023-01-17T23:57:03.653Z,5.67
2023-01-17T23:59:31.258Z,5.67
